createdAt,value
2019-05-22T00:04:23.314Z,5.47
2019-05-22T00:09:44.904Z,4.60
2019-05-22T00:14:53.466Z,5.40
2019-05-22T00:19:59.730Z,5.20
2019-05-22T00:25:08.002Z,5.08
2019-05-22T00:30:16.592Z,5.17
2019-05-22T00:35:23.482Z,5.20
2019-05-22T00:40:31.615Z,4.73
2019-05-22T00:45:37.434Z,4.23
2019-05-22T00:50:57.194Z,4.35
2019-05-22T00:56:11.540Z,4.00
2019-05-22T01:01:28.908Z,4.47
2019-05-22T01:06:36.276Z,4.53
2019-05-22T01:11:42.575Z,4.80
2019-05-22T01:16:48.904Z,5.13
2019-05-22T01:21:55.357Z,5.03
2019-05-22T01:27:00.176Z,5.27
2019-05-22T01:32:16.439Z,5.40
2019-05-22T01:37:26.362Z,4.63
2019-05-22T01:42:34.998Z,5.33
2019-05-22T01:47:46.796Z,6.50
2019-05-22T01:52:52.948Z,7.17
2019-05-22T01:57:58.371Z,7.47
2019-05-22T02:03:03.502Z,6.10
2019-05-22T02:08:09.329Z,7.00
2019-05-22T02:13:19.542Z,6.13
2019-05-22T02:18:25.717Z,6.30
2019-05-22T02:23:30.976Z,5.87
2019-05-22T02:28:37.043Z,6.50
2019-05-22T02:34:00.454Z,7.07
2019-05-22T02:39:10.586Z,5.80
2019-05-22T02:44:15.646Z,5.70
2019-05-22T02:49:22.683Z,5.67
2019-05-22T02:54:31.692Z,6.00
2019-05-22T02:59:38.323Z,6.10
2019-05-22T03:05:10.954Z,6.47
2019-05-22T03:10:18.288Z,6.47
2019-05-22T03:15:26.074Z,6.83
2019-05-22T03:20:33.591Z,8.17
2019-05-22T03:25:40.513Z,7.47
2019-05-22T03:30:47.545Z,7.33
2019-05-22T03:36:01.532Z,7.53
2019-05-22T03:41:07.496Z,7.73
2019-05-22T03:46:34.933Z,7.50
2019-05-22T03:51:40.815Z,8.80
2019-05-22T03:56:46.984Z,9.03
2019-05-22T04:01:52.519Z,7.85
2019-05-22T04:06:58.039Z,8.47
2019-05-22T04:12:02.733Z,11.60
2019-05-22T04:17:10.301Z,10.13
2019-05-22T04:22:15.492Z,8.90
2019-05-22T04:27:20.666Z,10.33
2019-05-22T04:32:35.801Z,9.90
2019-05-22T04:37:41.906Z,9.83
2019-05-22T04:42:47.920Z,9.60
2019-05-22T04:47:57.589Z,8.97
2019-05-22T04:53:02.999Z,10.70
2019-05-22T04:58:10.985Z,9.40
2019-05-22T05:03:17.083Z,10.83
2019-05-22T05:08:22.989Z,11.57
2019-05-22T05:13:27.937Z,10.77
2019-05-22T05:18:33.372Z,12.63
2019-05-22T05:23:39.264Z,13.23
2019-05-22T05:28:45.408Z,14.07
2019-05-22T05:34:22.730Z,14.57
2019-05-22T05:40:09.528Z,14.13
2019-05-22T05:45:14.169Z,15.73
2019-05-22T05:50:20.512Z,14.60
2019-05-22T05:55:28.740Z,14.17
2019-05-22T06:00:35.948Z,12.83
2019-05-22T06:05:44.673Z,12.87
2019-05-22T06:11:43.458Z,12.37
2019-05-22T06:17:29.192Z,9.67
2019-05-22T06:22:34.268Z,10.20
2019-05-22T06:27:58.291Z,8.80
2019-05-22T06:33:37.784Z,9.20
2019-05-22T06:39:07.770Z,7.50
2019-05-22T06:44:44.309Z,7.25
2019-05-22T06:49:57.181Z,7.05
2019-05-22T06:55:01.927Z,7.55
2019-05-22T07:00:15.323Z,9.45
2019-05-22T07:05:20.596Z,8.50
2019-05-22T07:10:26.202Z,7.70
2019-05-22T07:15:38.196Z,7.70
2019-05-22T07:20:44.564Z,7.75
2019-05-22T07:25:49.636Z,8.25
2019-05-22T07:30:54.703Z,7.62
2019-05-22T07:36:16.734Z,7.33
2019-05-22T07:41:08.023Z,6.72
2019-05-22T07:46:13.167Z,6.72
2019-05-22T07:51:19.721Z,6.73
2019-05-22T07:56:24.725Z,6.60
2019-05-22T08:01:31.271Z,6.92
2019-05-22T08:06:36.137Z,8.50
2019-05-22T08:11:41.693Z,6.60
2019-05-22T08:16:46.590Z,6.12
2019-05-22T08:22:06.216Z,6.30
2019-05-22T08:26:58.990Z,5.40
2019-05-22T08:32:05.171Z,5.80
2019-05-22T08:37:13.755Z,5.53
2019-05-22T08:42:19.517Z,6.22
2019-05-22T08:47:24.554Z,4.80
2019-05-22T08:52:30.824Z,5.92
2019-05-22T08:57:37.634Z,6.35
2019-05-22T09:19:14.149Z,5.42
2019-05-22T09:24:20.065Z,6.03
2019-05-22T09:29:25.154Z,4.65
2019-05-22T09:34:30.579Z,4.45
2019-05-22T09:39:35.249Z,4.40
2019-05-22T09:44:41.028Z,4.83
2019-05-22T09:49:45.904Z,4.65
2019-05-22T09:54:50.734Z,4.55
2019-05-22T09:59:55.933Z,5.00
2019-05-22T10:05:01.480Z,5.40
2019-05-22T10:10:07.827Z,4.58
2019-05-22T10:15:13.146Z,4.05
2019-05-22T10:20:18.783Z,3.72
2019-05-22T10:25:23.466Z,3.10
2019-05-22T10:30:28.612Z,3.15
2019-05-22T10:35:34.858Z,3.35
2019-05-22T10:40:39.424Z,2.85
2019-05-22T10:45:43.878Z,2.95
2019-05-22T10:50:48.955Z,2.22
2019-05-22T10:55:56.298Z,2.27
2019-05-22T11:01:01.497Z,2.65
2019-05-22T11:06:07.740Z,2.50
2019-05-22T11:11:13.371Z,2.50
2019-05-22T11:16:19.961Z,2.60
2019-05-22T11:21:25.423Z,2.72
2019-05-22T11:26:30.338Z,2.60
2019-05-22T11:31:34.955Z,3.45
2019-05-22T11:36:42.615Z,2.77
2019-05-22T11:41:47.706Z,3.08
2019-05-22T11:46:52.938Z,2.72
2019-05-22T11:51:57.704Z,2.92
2019-05-22T11:57:02.629Z,2.40
2019-05-22T12:02:08.680Z,2.67
2019-05-22T12:07:13.786Z,2.72
2019-05-22T12:12:19.117Z,2.30
2019-05-22T12:17:37.582Z,2.37
2019-05-22T12:22:32.995Z,2.75
2019-05-22T12:27:37.700Z,2.35
2019-05-22T12:32:42.583Z,1.98
2019-05-22T12:37:47.431Z,2.40
2019-05-22T12:42:53.493Z,2.60
2019-05-22T12:47:59.187Z,2.80
2019-05-22T12:53:06.608Z,1.98
2019-05-22T12:58:12.554Z,2.00
2019-05-22T13:03:21.298Z,2.17
2019-05-22T13:08:26.722Z,2.04
2019-05-22T13:13:31.553Z,1.87
2019-05-22T13:18:37.406Z,1.85
2019-05-22T13:23:43.706Z,1.40
2019-05-22T13:28:50.480Z,1.50
2019-05-22T13:33:55.070Z,1.70
2019-05-22T13:39:00.246Z,1.22
2019-05-22T13:44:15.896Z,1.22
2019-05-22T13:49:14.206Z,1.22
2019-05-22T13:54:23.514Z,1.15
2019-05-22T13:59:42.627Z,1.17
2019-05-22T14:04:48.674Z,1.00
2019-05-22T14:09:55.915Z,1.37
2019-05-22T14:15:04.956Z,1.40
2019-05-22T14:20:20.494Z,0.95
2019-05-22T14:25:25.916Z,1.30
2019-05-22T14:30:36.966Z,1.10
2019-05-22T14:35:53.393Z,1.03
2019-05-22T14:41:22.397Z,1.25
2019-05-22T15:22:29.032Z,1.17
2019-05-22T15:27:35.762Z,1.20
2019-05-22T15:32:40.453Z,1.12
2019-05-22T15:37:46.308Z,1.07
2019-05-22T15:42:51.034Z,1.00
2019-05-22T15:48:01.753Z,1.32
2019-05-22T15:53:13.452Z,1.30
2019-05-22T15:58:24.038Z,1.40
2019-05-22T16:03:30.237Z,0.70
2019-05-22T16:08:41.677Z,1.30
2019-05-22T16:13:51.893Z,1.30
2019-05-22T16:19:00.574Z,1.35
2019-05-22T16:24:07.759Z,1.00
2019-05-22T16:29:15.317Z,1.10
2019-05-22T16:34:21.859Z,1.10
2019-05-22T16:39:27.238Z,1.45
2019-05-22T16:44:42.297Z,1.32
2019-05-22T16:49:51.461Z,1.20
2019-05-22T16:55:30.322Z,1.40
2019-05-22T17:00:39.675Z,1.60
2019-05-22T17:05:48.483Z,1.92
2019-05-22T17:10:53.144Z,1.77
2019-05-22T17:16:41.068Z,1.85
2019-05-22T17:52:37.739Z,2.50
2019-05-22T17:57:47.038Z,2.80
2019-05-22T18:02:55.380Z,2.10
2019-05-22T18:07:59.766Z,2.80
2019-05-22T18:13:05.268Z,2.20
2019-05-22T18:18:10.770Z,2.27
2019-05-22T18:23:16.920Z,2.40
2019-05-22T18:28:20.959Z,2.37
2019-05-22T18:33:25.574Z,2.70
2019-05-22T18:38:37.707Z,2.60
2019-05-22T18:43:42.942Z,2.72
2019-05-22T18:49:22.171Z,2.12
2019-05-22T18:54:26.273Z,2.30
2019-05-22T19:22:59.967Z,4.40
2019-05-22T19:28:04.797Z,3.13
2019-05-22T19:33:09.313Z,2.93
2019-05-22T19:38:16.239Z,2.50
2019-05-22T19:43:30.004Z,3.23
2019-05-22T19:48:34.191Z,3.37
2019-05-22T19:53:41.179Z,3.10
2019-05-22T19:58:46.822Z,3.37
2019-05-22T20:03:53.187Z,2.87
2019-05-22T20:09:06.233Z,3.03
2019-05-22T20:14:10.518Z,3.37
2019-05-22T20:19:15.335Z,3.37
2019-05-22T20:24:28.016Z,3.70
2019-05-22T20:29:32.267Z,3.60
2019-05-22T20:34:38.626Z,3.70
2019-05-22T20:39:55.165Z,4.40
2019-05-22T20:44:49.450Z,3.33
2019-05-22T20:49:59.841Z,4.10
2019-05-22T20:55:19.434Z,3.90
2019-05-22T21:00:29.443Z,4.60
2019-05-22T21:05:33.886Z,4.33
2019-05-22T21:10:40.901Z,4.50
2019-05-22T21:15:53.277Z,4.87
2019-05-22T21:20:58.583Z,4.37
2019-05-22T21:26:05.232Z,5.20
2019-05-22T21:31:15.176Z,5.33
2019-05-22T21:36:21.461Z,5.67
2019-05-22T21:41:25.927Z,4.97
2019-05-22T21:46:30.692Z,4.20
2019-05-22T21:51:38.903Z,4.50
2019-05-22T21:56:44.489Z,5.47
2019-05-22T22:02:13.563Z,5.57
2019-05-22T22:07:21.024Z,5.03
2019-05-22T22:12:25.370Z,5.80
2019-05-22T22:17:30.300Z,5.30
2019-05-22T22:22:35.608Z,5.17
2019-05-22T22:27:40.572Z,5.10
2019-05-22T22:32:46.310Z,5.33
2019-05-22T22:37:54.932Z,4.80
2019-05-22T22:43:01.579Z,5.20
2019-05-22T22:48:32.004Z,4.30
2019-05-22T22:53:34.245Z,4.67
2019-05-22T22:58:48.744Z,5.20
2019-05-22T23:03:59.590Z,6.27
2019-05-22T23:09:05.213Z,5.00
2019-05-22T23:14:10.257Z,4.70
2019-05-22T23:19:34.203Z,5.50
2019-05-22T23:24:40.771Z,5.60
2019-05-22T23:29:48.361Z,5.20
2019-05-22T23:34:52.655Z,5.78
2019-05-22T23:40:07.206Z,6.10
2019-05-22T23:45:22.718Z,5.83
2019-05-22T23:50:28.899Z,5.20
2019-05-22T23:55:34.208Z,5.33
